Time;durP1;ratioP1;P1;durP2;ratioP2;P2;SDS_P1;SDS_P2;PMS_P1;PMS_P2;Temp;Humidity;BMP_temperature;BMP_pressure;BME280_temperature;BME280_humidity;BME280_pressure;Samples;Min_cycle;Max_cycle;Signal;HPM_P1;HPM_P2
2022/05/25 00:00:44;;;;;;;7.70;5.05;;;;;;;;;;5023090;28;20025;-56
2022/05/25 00:03:11;;;;;;;8.85;4.80;;;;;;;;;;5023757;28;20029;-58
2022/05/25 00:05:37;;;;;;;8.35;4.78;;;;;;;;;;5022894;28;20037;-55
2022/05/25 00:08:04;;;;;;;12.85;5.40;;;;;;;;;;5023748;28;20426;-57
2022/05/25 00:10:30;;;;;;;12.48;5.50;;;;;;;;;;5022818;28;20033;-56
2022/05/25 00:12:58;;;;;;;12.73;5.30;;;;;;;;;;5023095;28;20431;-56
2022/05/25 00:15:24;;;;;;;11.68;4.10;;;;;;;;;;5022999;28;20037;-55
2022/05/25 00:17:50;;;;;;;10.07;4.70;;;;;;;;;;5022834;28;20510;-54
2022/05/25 00:20:17;;;;;;;8.27;5.55;;;;;;;;;;5022579;28;20144;-55
2022/05/25 00:22:46;;;;;;;8.48;4.70;;;;;;;;;;5022558;28;20022;-55
2022/05/25 00:25:14;;;;;;;8.00;4.78;;;;;;;;;;5024608;28;20041;-56
2022/05/25 00:27:41;;;;;;;6.72;4.93;;;;;;;;;;5026471;28;20025;-60
2022/05/25 00:30:08;;;;;;;8.45;4.93;;;;;;;;;;5026141;28;20039;-58
2022/05/25 00:32:34;;;;;;;6.40;4.80;;;;;;;;;;5026407;28;20024;-57
2022/05/25 00:35:01;;;;;;;9.52;5.40;;;;;;;;;;5026129;28;20032;-60
2022/05/25 00:37:27;;;;;;;6.22;4.72;;;;;;;;;;5026118;28;20087;-60
2022/05/25 00:39:57;;;;;;;7.35;5.18;;;;;;;;;;5025729;28;20033;-59
2022/05/25 00:42:24;;;;;;;9.90;4.82;;;;;;;;;;5026225;28;20036;-58
2022/05/25 00:44:50;;;;;;;7.85;4.82;;;;;;;;;;5025978;28;20025;-57
2022/05/25 00:47:20;;;;;;;10.27;4.70;;;;;;;;;;5026021;28;20037;-56
2022/05/25 00:49:46;;;;;;;14.80;4.88;;;;;;;;;;5025928;28;20136;-57
2022/05/25 00:52:13;;;;;;;9.07;4.88;;;;;;;;;;5025982;28;20033;-59
2022/05/25 00:54:49;;;;;;;10.85;5.43;;;;;;;;;;5025742;28;20409;-59
2022/05/25 00:57:21;;;;;;;8.32;5.00;;;;;;;;;;5025994;28;20616;-58
2022/05/25 00:59:49;;;;;;;8.75;5.25;;;;;;;;;;5025334;28;20036;-60
2022/05/25 01:02:16;;;;;;;6.93;4.50;;;;;;;;;;5025678;28;20021;-59
2022/05/25 01:04:42;;;;;;;8.23;4.80;;;;;;;;;;5067099;28;20032;-61
2022/05/25 01:07:15;;;;;;;9.82;5.00;;;;;;;;;;5075846;28;20029;-58
2022/05/25 01:09:50;;;;;;;11.45;4.80;;;;;;;;;;5075756;28;20035;-52
2022/05/25 01:12:17;;;;;;;8.43;5.25;;;;;;;;;;5075653;28;20127;-62
2022/05/25 01:14:53;;;;;;;5.40;4.90;;;;;;;;;;5075417;28;20024;-59
2022/05/25 01:17:39;;;;;;;10.70;5.20;;;;;;;;;;5075399;28;20460;-60
2022/05/25 01:20:09;;;;;;;9.20;5.03;;;;;;;;;;4974598;28;20043;-60
2022/05/25 01:22:40;;;;;;;9.40;4.80;;;;;;;;;;4974830;28;20031;-59
2022/05/25 01:25:22;;;;;;;9.20;4.88;;;;;;;;;;4974655;28;20122;-55
2022/05/25 01:27:50;;;;;;;6.90;4.85;;;;;;;;;;4974498;28;20041;-60
2022/05/25 01:30:20;;;;;;;7.45;5.30;;;;;;;;;;4974541;28;20130;-58
2022/05/25 01:32:49;;;;;;;7.53;4.80;;;;;;;;;;4974668;28;20062;-52
2022/05/25 01:35:24;;;;;;;7.10;4.88;;;;;;;;;;4974248;28;20487;-53
2022/05/25 01:37:53;;;;;;;8.13;5.15;;;;;;;;;;4974331;28;20435;-63
2022/05/25 01:40:35;;;;;;;5.28;4.22;;;;;;;;;;4974509;28;20027;-53
2022/05/25 01:43:09;;;;;;;6.47;4.85;;;;;;;;;;4974209;28;20031;-61
2022/05/25 01:45:38;;;;;;;7.18;4.90;;;;;;;;;;4974176;28;20034;-62
2022/05/25 01:48:08;;;;;;;7.80;4.93;;;;;;;;;;4974403;28;20407;-53
2022/05/25 01:50:50;;;;;;;10.33;5.03;;;;;;;;;;4974174;28;20064;-62
2022/05/25 01:53:18;;;;;;;9.15;4.82;;;;;;;;;;4974515;28;20027;-52
2022/05/25 01:55:47;;;;;;;9.23;5.40;;;;;;;;;;4974073;28;20033;-60
2022/05/25 01:58:14;;;;;;;8.48;4.78;;;;;;;;;;5067058;28;20039;-53
2022/05/25 02:00:42;;;;;;;10.02;5.75;;;;;;;;;;5074568;28;20055;-63
2022/05/25 02:06:07;;;;;;;10.43;5.22;;;;;;;;;;5074954;28;20494;-59
2022/05/25 02:08:48;;;;;;;7.78;6.22;;;;;;;;;;5074632;28;20020;-60
2022/05/25 02:11:25;;;;;;;6.75;5.07;;;;;;;;;;5074287;28;20411;-62
2022/05/25 02:13:54;;;;;;;15.32;6.00;;;;;;;;;;5074358;28;20028;-62
2022/05/25 02:16:52;;;;;;;7.90;5.65;;;;;;;;;;5074185;28;20029;-60
2022/05/25 02:19:23;;;;;;;11.73;6.63;;;;;;;;;;4973634;28;20039;-63
2022/05/25 02:21:58;;;;;;;9.07;5.60;;;;;;;;;;4973537;28;20129;-61
2022/05/25 02:24:28;;;;;;;6.50;5.70;;;;;;;;;;4973817;28;20109;-61
2022/05/25 02:27:00;;;;;;;11.77;5.95;;;;;;;;;;4973413;28;20169;-60
2022/05/25 02:29:26;;;;;;;14.32;6.22;;;;;;;;;;4956533;28;20438;-63
2022/05/25 02:31:55;;;;;;;9.73;6.22;;;;;;;;;;4973327;28;20406;-58
2022/05/25 02:34:24;;;;;;;6.95;6.03;;;;;;;;;;4973134;28;20031;-57
2022/05/25 02:36:51;;;;;;;8.30;5.65;;;;;;;;;;4973271;28;20490;-59
2022/05/25 02:39:17;;;;;;;17.70;6.32;;;;;;;;;;4973124;28;20035;-59
2022/05/25 02:41:52;;;;;;;9.48;5.40;;;;;;;;;;4973157;28;20062;-51
2022/05/25 02:44:19;;;;;;;6.70;5.78;;;;;;;;;;4973420;28;20052;-59
2022/05/25 02:46:45;;;;;;;8.93;6.25;;;;;;;;;;4972280;28;20566;-58
2022/05/25 02:49:12;;;;;;;11.07;7.22;;;;;;;;;;4973238;28;20039;-58
2022/05/25 02:51:38;;;;;;;11.27;6.35;;;;;;;;;;4972843;28;20046;-54
2022/05/25 02:54:07;;;;;;;7.70;6.15;;;;;;;;;;4989148;28;20040;-59
2022/05/25 02:56:33;;;;;;;10.80;6.13;;;;;;;;;;5073865;28;20468;-52
2022/05/25 02:59:00;;;;;;;8.13;6.13;;;;;;;;;;5073740;28;20056;-62
2022/05/25 03:01:26;;;;;;;6.88;5.80;;;;;;;;;;5073473;28;20055;-61
2022/05/25 03:03:52;;;;;;;10.40;5.85;;;;;;;;;;5073480;28;20028;-63
2022/05/25 03:06:18;;;;;;;11.45;6.03;;;;;;;;;;5073446;28;20036;-51
2022/05/25 03:08:45;;;;;;;6.97;5.30;;;;;;;;;;5073432;28;20055;-51
2022/05/25 03:11:13;;;;;;;7.15;6.22;;;;;;;;;;5073481;28;20057;-63
2022/05/25 03:13:41;;;;;;;8.25;6.20;;;;;;;;;;5073647;28;20023;-57
2022/05/25 03:16:08;;;;;;;12.30;6.18;;;;;;;;;;5073362;28;20078;-60
2022/05/25 03:18:34;;;;;;;15.23;6.85;;;;;;;;;;5073409;28;20468;-57
2022/05/25 03:21:00;;;;;;;7.85;6.00;;;;;;;;;;5073533;28;20059;-60
2022/05/25 03:23:26;;;;;;;10.73;5.90;;;;;;;;;;5073197;28;20017;-53
2022/05/25 03:25:52;;;;;;;10.43;6.30;;;;;;;;;;5073671;28;20094;-60
2022/05/25 03:28:18;;;;;;;11.45;6.22;;;;;;;;;;5073521;28;20104;-58
2022/05/25 03:30:46;;;;;;;8.68;5.75;;;;;;;;;;5073099;28;20021;-59
2022/05/25 03:33:13;;;;;;;6.63;5.75;;;;;;;;;;5073331;28;20115;-59
2022/05/25 03:35:39;;;;;;;11.40;6.03;;;;;;;;;;5073131;28;20021;-59
2022/05/25 03:38:06;;;;;;;7.22;6.03;;;;;;;;;;5073109;28;20020;-60
2022/05/25 03:40:32;;;;;;;7.28;5.93;;;;;;;;;;5073542;28;20032;-60
2022/05/25 03:42:59;;;;;;;9.02;6.05;;;;;;;;;;5073166;28;20013;-60
2022/05/25 03:45:25;;;;;;;7.82;5.80;;;;;;;;;;5072908;28;20039;-51
2022/05/25 03:47:53;;;;;;;11.07;5.88;;;;;;;;;;5073164;28;20024;-60
2022/05/25 03:50:20;;;;;;;7.05;6.35;;;;;;;;;;5073267;28;20056;-51
2022/05/25 03:52:46;;;;;;;6.75;6.05;;;;;;;;;;5073072;28;20025;-51
2022/05/25 03:55:13;;;;;;;8.55;6.10;;;;;;;;;;5073062;28;20028;-58
2022/05/25 03:57:39;;;;;;;8.80;6.20;;;;;;;;;;5073261;28;20024;-60
2022/05/25 04:00:06;;;;;;;8.43;5.93;;;;;;;;;;5076813;28;20017;-60
2022/05/25 04:02:32;;;;;;;8.80;5.85;;;;;;;;;;5045721;28;21159;-58
2022/05/25 04:05:11;;;;;;;12.60;8.20;;;;;;;;;;5053068;28;20052;-56
2022/05/25 04:07:39;;;;;;;10.57;7.47;;;;;;;;;;5056993;28;20029;-56
2022/05/25 04:10:10;;;;;;;13.77;6.68;;;;;;;;;;5056713;28;20043;-53
2022/05/25 04:12:37;;;;;;;12.77;8.63;;;;;;;;;;5056552;28;20040;-57
2022/05/25 04:15:03;;;;;;;11.52;6.57;;;;;;;;;;5056652;28;20516;-57
2022/05/25 04:17:32;;;;;;;9.77;7.25;;;;;;;;;;5056500;28;20025;-56
2022/05/25 04:19:58;;;;;;;7.82;5.97;;;;;;;;;;5056206;28;20052;-57
2022/05/25 04:22:24;;;;;;;10.60;5.70;;;;;;;;;;5056631;28;20021;-56
2022/05/25 04:24:50;;;;;;;9.95;5.72;;;;;;;;;;5056480;28;20074;-57
2022/05/25 04:27:16;;;;;;;6.32;5.53;;;;;;;;;;5056351;28;20033;-57
2022/05/25 04:29:42;;;;;;;6.32;5.70;;;;;;;;;;5056619;28;20017;-59
2022/05/25 04:32:09;;;;;;;8.98;6.03;;;;;;;;;;5056170;28;20025;-57
2022/05/25 04:34:35;;;;;;;9.70;6.07;;;;;;;;;;5056284;28;20481;-58
2022/05/25 04:39:46;;;;;;;12.15;5.90;;;;;;;;;;5056401;28;20063;-59
2022/05/25 04:42:12;;;;;;;12.45;5.97;;;;;;;;;;5056365;28;20488;-54
2022/05/25 04:44:40;;;;;;;9.57;5.80;;;;;;;;;;5056093;28;20415;-59
2022/05/25 04:47:07;;;;;;;7.93;6.07;;;;;;;;;;5055899;28;20029;-58
2022/05/25 04:49:33;;;;;;;7.25;5.72;;;;;;;;;;5056013;28;20021;-54
2022/05/25 04:52:02;;;;;;;6.50;5.32;;;;;;;;;;5055850;28;20456;-56
2022/05/25 04:54:28;;;;;;;10.40;5.68;;;;;;;;;;5055986;28;20019;-57
2022/05/25 04:59:39;;;;;;;6.47;5.78;;;;;;;;;;5056257;28;20044;-57
2022/05/25 05:02:05;;;;;;;7.47;6.10;;;;;;;;;;5055529;28;20390;-58
2022/05/25 05:04:31;;;;;;;11.57;5.95;;;;;;;;;;5055997;28;20025;-59
2022/05/25 05:06:58;;;;;;;7.35;5.70;;;;;;;;;;5055585;28;20120;-60
2022/05/25 05:09:24;;;;;;;7.25;5.57;;;;;;;;;;5055180;28;20468;-58
2022/05/25 05:11:50;;;;;;;10.32;6.13;;;;;;;;;;5054998;28;20128;-58
2022/05/25 05:14:16;;;;;;;11.57;5.97;;;;;;;;;;5055435;28;20029;-58
2022/05/25 05:16:42;;;;;;;7.63;5.70;;;;;;;;;;5055239;28;20033;-57
2022/05/25 05:19:10;;;;;;;13.13;6.40;;;;;;;;;;5055603;28;20050;-57
2022/05/25 05:21:37;;;;;;;9.77;5.82;;;;;;;;;;5055652;28;20496;-57
2022/05/25 05:24:03;;;;;;;8.18;5.50;;;;;;;;;;5055493;28;20094;-58
2022/05/25 05:26:32;;;;;;;8.75;5.53;;;;;;;;;;5055278;28;20496;-57
2022/05/25 05:28:59;;;;;;;10.93;5.47;;;;;;;;;;5055420;28;20464;-57
2022/05/25 05:31:27;;;;;;;9.55;5.85;;;;;;;;;;5055179;28;20071;-57
2022/05/25 05:33:56;;;;;;;9.93;6.18;;;;;;;;;;5055146;28;20036;-53
2022/05/25 05:36:24;;;;;;;10.18;6.50;;;;;;;;;;5055262;28;20021;-57
2022/05/25 05:38:52;;;;;;;8.07;5.35;;;;;;;;;;5055165;28;20021;-57
2022/05/25 05:41:21;;;;;;;7.40;5.13;;;;;;;;;;5036640;28;20492;-57
2022/05/25 05:43:47;;;;;;;11.52;5.80;;;;;;;;;;5055105;28;20075;-56
2022/05/25 05:46:16;;;;;;;6.78;5.70;;;;;;;;;;5054657;28;20037;-58
2022/05/25 05:48:42;;;;;;;9.00;5.53;;;;;;;;;;5055063;28;20047;-59
2022/05/25 05:51:11;;;;;;;11.70;5.90;;;;;;;;;;5037135;28;20468;-59
2022/05/25 05:53:37;;;;;;;7.18;5.30;;;;;;;;;;5037147;28;20025;-58
2022/05/25 05:56:04;;;;;;;6.60;5.38;;;;;;;;;;5054809;28;20029;-59
2022/05/25 05:58:30;;;;;;;10.32;5.80;;;;;;;;;;5054991;28;20059;-59
2022/05/25 06:00:57;;;;;;;7.05;5.20;;;;;;;;;;5054504;28;20056;-58
2022/05/25 06:03:23;;;;;;;12.95;5.35;;;;;;;;;;5055022;28;20035;-57
2022/05/25 06:05:49;;;;;;;12.82;5.50;;;;;;;;;;5054910;28;20040;-57
2022/05/25 06:08:18;;;;;;;11.93;4.85;;;;;;;;;;5054775;28;20025;-57
2022/05/25 06:10:44;;;;;;;9.32;5.30;;;;;;;;;;5054422;28;20511;-57
2022/05/25 06:13:10;;;;;;;9.82;5.55;;;;;;;;;;5054658;28;20028;-56
2022/05/25 06:21:07;;;;;;;6.82;4.90;;;;;;;;;;5054519;28;20051;-56
2022/05/25 06:23:33;;;;;;;9.48;5.70;;;;;;;;;;5054422;28;20029;-57
2022/05/25 06:25:59;;;;;;;7.22;5.22;;;;;;;;;;5036292;28;20044;-58
2022/05/25 06:28:25;;;;;;;14.80;5.93;;;;;;;;;;5054223;28;20033;-58
2022/05/25 06:30:54;;;;;;;11.70;6.05;;;;;;;;;;5054396;28;20029;-56
2022/05/25 06:33:20;;;;;;;11.13;5.45;;;;;;;;;;5054371;28;20021;-56
2022/05/25 06:35:46;;;;;;;7.85;5.43;;;;;;;;;;5054019;28;20033;-56
2022/05/25 06:38:13;;;;;;;10.98;5.10;;;;;;;;;;5054042;28;20061;-56
2022/05/25 06:40:39;;;;;;;8.48;5.53;;;;;;;;;;5053897;28;20020;-54
2022/05/25 06:43:05;;;;;;;10.40;6.05;;;;;;;;;;5053808;28;20067;-57
2022/05/25 06:45:31;;;;;;;13.50;5.75;;;;;;;;;;5053948;28;20025;-58
2022/05/25 06:47:58;;;;;;;14.68;5.13;;;;;;;;;;5053773;28;20033;-57
2022/05/25 06:50:25;;;;;;;7.78;5.25;;;;;;;;;;5053583;28;20116;-58
2022/05/25 06:52:52;;;;;;;8.35;5.47;;;;;;;;;;5053754;28;20565;-58
2022/05/25 06:55:18;;;;;;;8.95;5.45;;;;;;;;;;5053903;28;20029;-60
2022/05/25 06:57:44;;;;;;;7.60;5.70;;;;;;;;;;5053807;28;20025;-63
2022/05/25 07:00:10;;;;;;;11.85;5.75;;;;;;;;;;5053816;28;20083;-64
2022/05/25 07:02:36;;;;;;;12.13;8.02;;;;;;;;;;5053556;28;20033;-61
2022/05/25 07:05:03;;;;;;;10.23;6.75;;;;;;;;;;5053498;28;20017;-65
2022/05/25 07:07:29;;;;;;;7.40;5.70;;;;;;;;;;5053682;28;20029;-63
2022/05/25 07:09:57;;;;;;;10.13;5.55;;;;;;;;;;5053472;28;20075;-63
2022/05/25 07:12:25;;;;;;;7.82;5.38;;;;;;;;;;5034994;28;20495;-65
2022/05/25 07:14:51;;;;;;;9.20;5.85;;;;;;;;;;5053601;28;20017;-64
2022/05/25 07:17:19;;;;;;;9.52;6.20;;;;;;;;;;5035294;28;20377;-63
2022/05/25 07:19:45;;;;;;;10.82;5.82;;;;;;;;;;5053182;28;20025;-61
2022/05/25 07:22:12;;;;;;;16.67;10.02;;;;;;;;;;5053511;28;20021;-62
2022/05/25 07:24:38;;;;;;;7.80;5.78;;;;;;;;;;5053418;28;20079;-62
2022/05/25 07:27:04;;;;;;;13.30;5.20;;;;;;;;;;5053288;28;20037;-67
2022/05/25 07:29:31;;;;;;;7.97;4.88;;;;;;;;;;5035450;28;20492;-63
2022/05/25 07:31:59;;;;;;;10.75;5.78;;;;;;;;;;5053186;28;20481;-61
2022/05/25 07:34:26;;;;;;;12.88;5.57;;;;;;;;;;5058769;28;20021;-64
2022/05/25 07:36:57;;;;;;;14.35;6.07;;;;;;;;;;5060005;28;20070;-52
2022/05/25 07:39:29;;;;;;;8.93;5.95;;;;;;;;;;5059754;28;20483;-52
2022/05/25 07:41:57;;;;;;;13.25;6.38;;;;;;;;;;5059893;28;20040;-59
2022/05/25 07:44:26;;;;;;;10.98;5.68;;;;;;;;;;5059878;28;20024;-58
2022/05/25 07:46:52;;;;;;;9.13;5.28;;;;;;;;;;5059355;28;20040;-54
2022/05/25 07:49:18;;;;;;;8.48;5.40;;;;;;;;;;5059661;28;20032;-59
2022/05/25 07:51:47;;;;;;;7.43;6.00;;;;;;;;;;5059540;28;20037;-54
2022/05/25 07:54:14;;;;;;;12.02;6.97;;;;;;;;;;5059807;28;20552;-54
2022/05/25 07:56:40;;;;;;;9.18;5.70;;;;;;;;;;5059783;28;20021;-56
2022/05/25 07:59:08;;;;;;;10.98;5.95;;;;;;;;;;5059717;28;20100;-60
2022/05/25 08:07:07;;;;;;;10.07;6.28;;;;;;;;;;5059513;28;20043;-58
2022/05/25 08:09:34;;;;;;;10.43;5.78;;;;;;;;;;5059570;28;20074;-60
2022/05/25 08:12:01;;;;;;;29.80;17.73;;;;;;;;;;5059549;28;20037;-55
2022/05/25 08:14:29;;;;;;;18.63;13.68;;;;;;;;;;5059568;28;20424;-53
2022/05/25 08:16:57;;;;;;;8.13;5.15;;;;;;;;;;5059347;28;20025;-56
2022/05/25 08:19:23;;;;;;;11.40;6.45;;;;;;;;;;5059556;28;20028;-54
2022/05/25 08:21:52;;;;;;;11.88;6.40;;;;;;;;;;5059120;28;20460;-49
2022/05/25 08:24:18;;;;;;;8.02;5.63;;;;;;;;;;5059185;28;20064;-52
2022/05/25 08:26:45;;;;;;;13.00;7.85;;;;;;;;;;5059588;28;20029;-52
2022/05/25 08:29:11;;;;;;;9.63;6.20;;;;;;;;;;5059232;28;20027;-53
2022/05/25 08:31:37;;;;;;;9.25;6.85;;;;;;;;;;5059238;28;20431;-52
2022/05/25 08:34:04;;;;;;;7.45;5.38;;;;;;;;;;5059219;28;20028;-53
2022/05/25 08:36:31;;;;;;;44.47;27.70;;;;;;;;;;5059454;28;20025;-51
2022/05/25 08:38:58;;;;;;;21.83;11.18;;;;;;;;;;5059341;28;20056;-51
2022/05/25 08:41:26;;;;;;;18.77;11.82;;;;;;;;;;5059238;28;20029;-53
2022/05/25 08:43:54;;;;;;;18.23;9.07;;;;;;;;;;5059238;28;20052;-52
2022/05/25 08:46:22;;;;;;;17.25;8.68;;;;;;;;;;5054661;28;20040;-53
2022/05/25 08:48:48;;;;;;;8.88;5.72;;;;;;;;;;5056052;28;20473;-52
2022/05/25 08:51:18;;;;;;;7.80;5.22;;;;;;;;;;5056273;28;20037;-52
2022/05/25 08:53:45;;;;;;;9.60;7.53;;;;;;;;;;5056362;28;20409;-53
2022/05/25 08:56:17;;;;;;;15.82;9.90;;;;;;;;;;5056013;28;20021;-52
2022/05/25 08:58:43;;;;;;;9.93;5.45;;;;;;;;;;5055826;28;20025;-52
2022/05/25 09:01:11;;;;;;;13.35;7.28;;;;;;;;;;5055567;28;20036;-52
2022/05/25 09:04:00;;;;;;;13.32;6.47;;;;;;;;;;5055714;28;20032;-53
2022/05/25 09:06:33;;;;;;;152.18;129.63;;;;;;;;;;5055749;28;20049;-52
2022/05/25 09:09:05;;;;;;;20.17;10.35;;;;;;;;;;5055695;28;20396;-54
2022/05/25 09:11:41;;;;;;;28.33;18.65;;;;;;;;;;5055591;28;20106;-53
2022/05/25 09:14:20;;;;;;;14.60;8.48;;;;;;;;;;5055483;28;20511;-54
2022/05/25 09:16:49;;;;;;;78.00;57.30;;;;;;;;;;5055657;28;20105;-53
2022/05/25 09:19:23;;;;;;;104.75;92.25;;;;;;;;;;5055445;28;20025;-53
2022/05/25 09:21:59;;;;;;;37.22;28.20;;;;;;;;;;5055366;28;20136;-54
2022/05/25 09:24:26;;;;;;;64.07;51.35;;;;;;;;;;5055550;28;20056;-54
2022/05/25 09:26:53;;;;;;;91.68;63.63;;;;;;;;;;5055188;28;20044;-54
2022/05/25 09:29:20;;;;;;;56.25;28.65;;;;;;;;;;5055433;28;20071;-54
2022/05/25 09:32:12;;;;;;;70.18;44.60;;;;;;;;;;5055181;28;20036;-54
2022/05/25 09:34:41;;;;;;;25.60;13.95;;;;;;;;;;5000764;28;20044;-55
2022/05/25 09:37:15;;;;;;;35.13;24.08;;;;;;;;;;5055213;28;20025;-54
2022/05/25 09:39:44;;;;;;;125.80;98.03;;;;;;;;;;5055316;28;20028;-54
2022/05/25 09:42:13;;;;;;;36.22;25.63;;;;;;;;;;5055160;28;20357;-53
2022/05/25 09:44:39;;;;;;;75.60;52.13;;;;;;;;;;5055017;28;20021;-52
2022/05/25 09:47:15;;;;;;;36.53;25.73;;;;;;;;;;5054998;28;20044;-52
2022/05/25 09:49:44;;;;;;;20.38;13.45;;;;;;;;;;5055012;28;20473;-53
2022/05/25 09:52:15;;;;;;;41.95;32.83;;;;;;;;;;5055106;28;20037;-54
2022/05/25 09:54:48;;;;;;;50.78;31.08;;;;;;;;;;5054934;28;20435;-53
2022/05/25 09:57:38;;;;;;;61.33;38.20;;;;;;;;;;5054399;28;20071;-52
2022/05/25 10:00:06;;;;;;;;;;;;;;;;;;4955072;29;20047;-51
2022/05/25 10:02:38;;;;;;;17.48;9.70;;;;;;;;;;4954475;29;19906;-53
2022/05/25 10:05:11;;;;;;;17.02;8.35;;;;;;;;;;4954831;29;20043;-51
2022/05/25 10:07:39;;;;;;;18.83;12.63;;;;;;;;;;4954385;29;20044;-49
2022/05/25 10:10:14;;;;;;;17.55;12.02;;;;;;;;;;4954088;29;20023;-49
2022/05/25 10:12:40;;;;;;;13.15;8.27;;;;;;;;;;4954788;29;20052;-53
2022/05/25 10:15:13;;;;;;;11.32;6.60;;;;;;;;;;4954352;29;20028;-66
2022/05/25 10:17:41;;;;;;;11.30;7.55;;;;;;;;;;4954270;29;20039;-62
2022/05/25 10:20:26;;;;;;;22.80;13.20;;;;;;;;;;4954158;28;20038;-58
2022/05/25 10:22:59;;;;;;;15.80;8.57;;;;;;;;;;4954328;29;20035;-53
2022/05/25 10:25:26;;;;;;;19.45;12.93;;;;;;;;;;4954523;29;20044;-63
2022/05/25 10:27:52;;;;;;;10.60;7.63;;;;;;;;;;4954057;29;20389;-63
2022/05/25 10:38:42;;;;;;;18.35;8.68;;;;;;;;;;5034337;28;20036;-59
2022/05/25 10:44:08;;;;;;;24.83;16.02;;;;;;;;;;5034594;28;20171;-61
2022/05/25 10:46:35;;;;;;;40.03;27.08;;;;;;;;;;5016014;28;20424;-60
2022/05/25 10:49:07;;;;;;;69.57;46.88;;;;;;;;;;5034015;28;20043;-63
2022/05/25 10:51:43;;;;;;;15.68;10.57;;;;;;;;;;5033727;28;20029;-60
2022/05/25 10:54:45;;;;;;;18.75;11.60;;;;;;;;;;5033836;28;20371;-54
2022/05/25 10:57:30;;;;;;;12.45;7.03;;;;;;;;;;5033879;28;20030;-64
2022/05/25 11:00:05;;;;;;;27.83;19.08;;;;;;;;;;5033744;28;20029;-63
2022/05/25 11:02:48;;;;;;;20.98;10.93;;;;;;;;;;5033644;28;20026;-55
2022/05/25 11:05:30;;;;;;;79.78;71.20;;;;;;;;;;5033768;28;20033;-63
2022/05/25 11:08:06;;;;;;;31.25;22.63;;;;;;;;;;5032971;28;20075;-54
2022/05/25 11:10:52;;;;;;;15.27;7.47;;;;;;;;;;5033353;28;20037;-61
2022/05/25 11:13:27;;;;;;;17.85;12.43;;;;;;;;;;5034117;28;20068;-64
2022/05/25 11:16:04;;;;;;;12.85;7.50;;;;;;;;;;5033357;28;20025;-60
2022/05/25 11:18:35;;;;;;;11.45;4.70;;;;;;;;;;5033620;28;20104;-66
2022/05/25 11:21:02;;;;;;;226.70;203.48;;;;;;;;;;5037580;28;20393;-56
2022/05/25 11:23:28;;;;;;;32.35;24.65;;;;;;;;;;5052693;28;20020;-60
2022/05/25 11:25:54;;;;;;;20.38;14.85;;;;;;;;;;5052774;28;20031;-61
2022/05/25 11:28:32;;;;;;;14.13;7.63;;;;;;;;;;5052864;28;20052;-55
2022/05/25 11:31:20;;;;;;;115.35;100.28;;;;;;;;;;5052811;28;20029;-53
2022/05/25 11:33:46;;;;;;;29.40;20.60;;;;;;;;;;5051126;28;20108;-64
2022/05/25 11:36:26;;;;;;;10.77;6.00;;;;;;;;;;5052847;28;20040;-55
2022/05/25 11:39:28;;;;;;;14.45;7.78;;;;;;;;;;5051888;28;20021;-61
2022/05/25 11:42:08;;;;;;;64.82;56.55;;;;;;;;;;4952679;29;20024;-58
2022/05/25 11:44:43;;;;;;;17.90;9.40;;;;;;;;;;4952363;28;20546;-54
2022/05/25 11:47:11;;;;;;;10.77;5.68;;;;;;;;;;4952386;29;20047;-54
2022/05/25 11:49:37;;;;;;;13.02;8.40;;;;;;;;;;4952434;28;20039;-65
2022/05/25 11:52:22;;;;;;;8.35;4.65;;;;;;;;;;4952457;29;20043;-63
2022/05/25 11:55:07;;;;;;;12.55;5.82;;;;;;;;;;4952451;28;20364;-65
2022/05/25 11:57:34;;;;;;;11.40;4.90;;;;;;;;;;4952634;29;20051;-57
2022/05/25 12:00:09;;;;;;;13.20;5.38;;;;;;;;;;4952551;28;20019;-60
2022/05/25 12:02:53;;;;;;;26.00;17.67;;;;;;;;;;4952476;29;20543;-53
2022/05/25 12:05:38;;;;;;;10.00;7.28;;;;;;;;;;4952485;29;20035;-59
2022/05/25 12:08:22;;;;;;;22.83;13.30;;;;;;;;;;4952446;29;20126;-57
2022/05/25 12:11:01;;;;;;;119.30;93.82;;;;;;;;;;4952054;28;20043;-55
2022/05/25 12:13:44;;;;;;;26.35;16.63;;;;;;;;;;4952679;28;20035;-56
2022/05/25 12:16:16;;;;;;;11.45;4.95;;;;;;;;;;5010164;28;20037;-54
2022/05/25 12:19:00;;;;;;;20.48;13.32;;;;;;;;;;5052604;28;20025;-59
2022/05/25 12:21:35;;;;;;;42.97;25.98;;;;;;;;;;5056648;28;20568;-55
2022/05/25 12:24:03;;;;;;;12.43;5.90;;;;;;;;;;5056486;28;20025;-60
2022/05/25 12:26:31;;;;;;;73.55;50.63;;;;;;;;;;5052302;28;20033;-60
2022/05/25 12:29:20;;;;;;;43.58;28.33;;;;;;;;;;5050194;28;20523;-53
2022/05/25 12:31:47;;;;;;;78.88;61.42;;;;;;;;;;5052640;28;20040;-58
2022/05/25 12:34:15;;;;;;;83.95;73.30;;;;;;;;;;5052565;28;20036;-54
2022/05/25 12:36:42;;;;;;;121.05;79.55;;;;;;;;;;5052778;28;20107;-51
2022/05/25 12:39:11;;;;;;;53.53;36.80;;;;;;;;;;5052607;28;20025;-52
2022/05/25 12:41:41;;;;;;;39.80;30.80;;;;;;;;;;5052493;28;20024;-55
2022/05/25 12:50:00;;;;;;;32.58;20.40;;;;;;;;;;5051078;28;20031;-55
2022/05/25 12:52:29;;;;;;;11.63;7.60;;;;;;;;;;5034686;28;20378;-57
2022/05/25 12:55:04;;;;;;;10.07;7.20;;;;;;;;;;5051162;28;20053;-53
2022/05/25 12:57:56;;;;;;;23.52;13.73;;;;;;;;;;5051419;28;20881;-58
2022/05/25 13:00:29;;;;;;;59.03;48.35;;;;;;;;;;5048483;28;20061;-59
2022/05/25 13:02:55;;;;;;;91.97;59.35;;;;;;;;;;5051499;28;20024;-52
2022/05/25 13:05:42;;;;;;;54.70;44.00;;;;;;;;;;5051449;28;20094;-60
2022/05/25 13:08:08;;;;;;;152.20;119.90;;;;;;;;;;4982090;28;20091;-52
2022/05/25 13:10:34;;;;;;;16.13;9.10;;;;;;;;;;4982051;28;20976;-53
2022/05/25 13:13:19;;;;;;;25.98;12.82;;;;;;;;;;4981894;28;20137;-53
2022/05/25 13:15:46;;;;;;;34.17;20.65;;;;;;;;;;4981978;28;20474;-53
2022/05/25 13:18:30;;;;;;;67.22;53.45;;;;;;;;;;4981569;28;20082;-53
2022/05/25 13:20:56;;;;;;;40.03;21.40;;;;;;;;;;4983702;28;20466;-51
2022/05/25 13:23:41;;;;;;;61.22;37.50;;;;;;;;;;4981494;28;20030;-59
2022/05/25 13:26:07;;;;;;;30.85;21.73;;;;;;;;;;4982436;28;20160;-50
2022/05/25 13:28:45;;;;;;;21.42;12.30;;;;;;;;;;4981318;28;20084;-53
2022/05/25 13:31:13;;;;;;;11.10;6.32;;;;;;;;;;4980687;28;20076;-52
2022/05/25 13:33:45;;;;;;;64.63;50.17;;;;;;;;;;4982176;28;20204;-57
2022/05/25 13:36:16;;;;;;;50.63;40.55;;;;;;;;;;4980235;28;20355;-54
2022/05/25 13:38:42;;;;;;;28.15;14.02;;;;;;;;;;4981289;28;20649;-53
2022/05/25 13:41:12;;;;;;;60.83;48.33;;;;;;;;;;4981157;28;20390;-56
2022/05/25 13:43:44;;;;;;;24.67;14.20;;;;;;;;;;4980820;28;20029;-55
2022/05/25 13:46:13;;;;;;;191.80;170.55;;;;;;;;;;5022608;28;20040;-56
2022/05/25 13:48:52;;;;;;;28.70;18.17;;;;;;;;;;5030983;28;20037;-57
2022/05/25 13:51:21;;;;;;;53.90;33.60;;;;;;;;;;5030733;28;20041;-54
2022/05/25 13:53:48;;;;;;;52.33;32.55;;;;;;;;;;5031144;28;20413;-57
2022/05/25 13:56:18;;;;;;;16.20;12.48;;;;;;;;;;5031443;28;20473;-54
2022/05/25 13:58:46;;;;;;;20.23;14.40;;;;;;;;;;5030858;28;20026;-54
2022/05/25 14:01:13;;;;;;;16.75;8.90;;;;;;;;;;5030933;28;20448;-54
2022/05/25 14:03:40;;;;;;;14.10;9.60;;;;;;;;;;5030621;28;20136;-54
2022/05/25 14:06:08;;;;;;;73.82;32.00;;;;;;;;;;5030885;28;20034;-56
2022/05/25 14:11:37;;;;;;;31.30;16.88;;;;;;;;;;5039649;28;20050;-53
2022/05/25 14:14:09;;;;;;;22.27;12.55;;;;;;;;;;5050819;28;20024;-59
2022/05/25 14:16:35;;;;;;;22.02;15.48;;;;;;;;;;5049420;28;20124;-55
2022/05/25 14:19:05;;;;;;;25.55;11.75;;;;;;;;;;5050707;28;20029;-54
2022/05/25 14:21:31;;;;;;;72.05;36.22;;;;;;;;;;5048470;28;20037;-54
2022/05/25 14:23:58;;;;;;;12.20;7.85;;;;;;;;;;5050495;28;20472;-56
2022/05/25 14:26:26;;;;;;;11.77;7.60;;;;;;;;;;5050197;28;20426;-55
2022/05/25 14:28:53;;;;;;;10.13;4.53;;;;;;;;;;5050287;28;20028;-55
2022/05/25 14:31:21;;;;;;;5.10;3.53;;;;;;;;;;5050163;28;20093;-56
2022/05/25 14:33:48;;;;;;;18.02;11.60;;;;;;;;;;5050273;28;20074;-57
2022/05/25 14:36:17;;;;;;;7.68;5.63;;;;;;;;;;5050009;28;20025;-56
2022/05/25 14:38:45;;;;;;;20.83;11.13;;;;;;;;;;5047827;28;20027;-56
2022/05/25 14:41:22;;;;;;;14.43;8.48;;;;;;;;;;5048491;28;20023;-56
2022/05/25 14:43:48;;;;;;;34.00;20.00;;;;;;;;;;5065507;28;20024;-56
2022/05/25 14:46:18;;;;;;;17.83;8.98;;;;;;;;;;5073716;28;20031;-55
2022/05/25 14:48:48;;;;;;;21.60;11.05;;;;;;;;;;5073703;28;20407;-55
2022/05/25 14:51:18;;;;;;;19.08;10.52;;;;;;;;;;5073699;28;20048;-55
2022/05/25 14:53:45;;;;;;;20.08;11.73;;;;;;;;;;5073853;28;20028;-55
2022/05/25 14:56:19;;;;;;;14.20;8.40;;;;;;;;;;5068168;28;20033;-55
2022/05/25 14:58:50;;;;;;;17.98;6.32;;;;;;;;;;5050865;28;20016;-58
2022/05/25 15:01:17;;;;;;;10.93;7.95;;;;;;;;;;5053145;28;20045;-55
2022/05/25 15:03:54;;;;;;;12.18;5.82;;;;;;;;;;5050580;28;20019;-58
2022/05/25 15:06:21;;;;;;;19.83;11.30;;;;;;;;;;5053008;28;20443;-56
2022/05/25 15:08:53;;;;;;;14.50;7.25;;;;;;;;;;5053140;28;20385;-58
2022/05/25 15:11:22;;;;;;;14.80;8.30;;;;;;;;;;5052867;28;20055;-55
2022/05/25 15:19:28;;;;;;;7.93;4.95;;;;;;;;;;5053399;28;20060;-54
2022/05/25 15:21:55;;;;;;;11.10;4.72;;;;;;;;;;5053292;28;20112;-55
2022/05/25 15:24:24;;;;;;;9.25;5.70;;;;;;;;;;5053360;28;20029;-53
2022/05/25 15:27:02;;;;;;;13.05;4.32;;;;;;;;;;5052971;28;20045;-53
2022/05/25 15:29:31;;;;;;;10.20;6.07;;;;;;;;;;5053199;28;20120;-54
2022/05/25 15:31:58;;;;;;;23.13;15.15;;;;;;;;;;5052874;28;20044;-54